createdAt,value
2022-08-09T00:00:11.445Z,2.67
2022-08-09T00:02:59.090Z,2.60
2022-08-09T00:06:16.457Z,3.07
2022-08-09T00:08:32.532Z,2.87
2022-08-09T00:11:00.635Z,2.57
2022-08-09T00:13:33.186Z,2.30
2022-08-09T00:16:05.418Z,2.37
2022-08-09T00:18:35.634Z,2.47
2022-08-09T00:21:08.666Z,2.50
2022-08-09T00:23:55.162Z,2.30
2022-08-09T00:26:29.759Z,3.07
2022-08-09T00:29:01.621Z,2.60
2022-08-09T00:31:57.362Z,2.40
2022-08-09T00:34:19.118Z,2.42
2022-08-09T00:36:50.879Z,2.50
2022-08-09T00:40:13.263Z,2.77
2022-08-09T00:44:14.578Z,3.07
2022-08-09T00:44:54.865Z,2.87
2022-08-09T00:47:24.714Z,3.85
2022-08-09T00:49:54.894Z,2.57
2022-08-09T00:52:30.098Z,4.00
2022-08-09T00:55:01.803Z,2.70
2022-08-09T00:57:34.228Z,2.20
2022-08-09T01:00:22.068Z,2.80
2022-08-09T01:03:07.990Z,3.00
2022-08-09T01:05:57.323Z,2.40
2022-08-09T01:08:34.854Z,2.67
2022-08-09T01:11:17.792Z,2.67
2022-08-09T01:13:59.549Z,2.57
2022-08-09T01:16:47.503Z,2.50
2022-08-09T01:20:01.938Z,2.70
2022-08-09T01:22:41.894Z,3.07
2022-08-09T01:25:12.324Z,3.00
2022-08-09T01:27:41.083Z,3.40
2022-08-09T01:30:33.431Z,3.17
2022-08-09T01:32:59.027Z,2.63
2022-08-09T01:35:53.323Z,2.80
2022-08-09T01:38:24.735Z,2.53
2022-08-09T01:41:12.117Z,2.70
2022-08-09T01:43:51.580Z,2.50
2022-08-09T01:46:26.858Z,2.77
2022-08-09T01:49:10.662Z,2.90
2022-08-09T01:51:42.886Z,2.40
2022-08-09T01:54:14.307Z,2.80
2022-08-09T01:56:47.243Z,2.80
2022-08-09T01:59:21.388Z,2.60
2022-08-09T02:01:58.432Z,3.13
2022-08-09T02:04:29.636Z,2.47
2022-08-09T02:08:34.641Z,2.90
2022-08-09T02:10:09.400Z,2.80
2022-08-09T02:12:37.704Z,2.67
2022-08-09T02:15:11.773Z,3.07
2022-08-09T02:18:01.733Z,2.87
2022-08-09T02:20:43.232Z,2.53
2022-08-09T02:23:23.208Z,2.97
2022-08-09T02:25:55.679Z,2.67
2022-08-09T02:28:31.643Z,2.90
2022-08-09T02:31:03.757Z,2.83
2022-08-09T02:34:07.061Z,2.63
2022-08-09T02:36:33.823Z,2.80
2022-08-09T02:39:07.226Z,2.83
2022-08-09T02:41:53.501Z,2.90
2022-08-09T02:44:31.269Z,3.03
2022-08-09T02:47:02.386Z,2.53
2022-08-09T02:49:38.424Z,2.80
2022-08-09T02:52:13.624Z,2.70
2022-08-09T02:54:54.552Z,3.27
2022-08-09T02:57:26.798Z,3.17
2022-08-09T03:00:20.739Z,3.10
2022-08-09T03:03:00.229Z,3.60
2022-08-09T03:05:29.150Z,2.90
2022-08-09T03:07:57.623Z,4.10
2022-08-09T03:10:26.936Z,3.00
2022-08-09T03:12:54.995Z,3.20
2022-08-09T03:15:25.214Z,2.50
2022-08-09T03:18:12.492Z,2.63
2022-08-09T03:20:41.423Z,3.30
2022-08-09T03:23:15.099Z,2.80
2022-08-09T03:25:58.339Z,2.97
2022-08-09T03:28:27.148Z,3.37
2022-08-09T03:30:55.653Z,3.13
2022-08-09T03:33:24.312Z,3.27
2022-08-09T03:36:12.819Z,3.30
2022-08-09T03:38:43.044Z,3.33
2022-08-09T03:41:16.268Z,3.10
2022-08-09T03:43:51.829Z,3.27
2022-08-09T03:46:33.102Z,3.57
2022-08-09T03:49:04.361Z,3.30
2022-08-09T03:51:54.160Z,3.53
2022-08-09T03:54:31.167Z,3.77
2022-08-09T03:57:18.026Z,3.37
2022-08-09T03:59:54.957Z,3.43
2022-08-09T04:02:27.015Z,3.80
2022-08-09T04:04:58.679Z,3.83
2022-08-09T04:07:47.858Z,3.93
2022-08-09T04:10:18.440Z,3.90
2022-08-09T04:12:53.472Z,3.40
2022-08-09T04:15:42.807Z,3.47
2022-08-09T04:18:18.098Z,3.47
2022-08-09T04:20:48.046Z,4.03
2022-08-09T04:23:16.920Z,3.63
2022-08-09T04:25:51.854Z,3.67
2022-08-09T04:28:33.218Z,3.07
2022-08-09T04:31:09.510Z,3.43
2022-08-09T04:33:47.211Z,4.33
2022-08-09T04:36:25.699Z,3.70
2022-08-09T04:38:59.119Z,3.70
2022-08-09T04:41:32.098Z,3.90
2022-08-09T04:44:09.562Z,3.60
2022-08-09T04:46:59.543Z,3.80
2022-08-09T04:49:53.846Z,3.92
2022-08-09T04:52:26.763Z,3.63
2022-08-09T04:54:56.338Z,3.40
2022-08-09T04:57:25.151Z,3.90
2022-08-09T04:59:54.223Z,4.23
2022-08-09T05:02:22.985Z,4.23
2022-08-09T05:04:55.194Z,4.20
2022-08-09T05:07:25.017Z,4.93
2022-08-09T05:09:54.923Z,4.53
2022-08-09T05:12:23.157Z,4.40
2022-08-09T05:14:50.600Z,4.47
2022-08-09T05:18:36.680Z,4.67
2022-08-09T05:20:06.766Z,6.27
2022-08-09T05:23:50.955Z,5.60
2022-08-09T05:25:24.897Z,5.60
2022-08-09T05:27:55.544Z,5.47
2022-08-09T05:30:22.934Z,4.83
2022-08-09T05:32:50.966Z,5.20
2022-08-09T05:35:18.383Z,4.45
2022-08-09T05:37:50.453Z,4.47
2022-08-09T05:40:18.478Z,4.72
2022-08-09T05:42:46.086Z,4.57
2022-08-09T05:45:14.315Z,4.65
2022-08-09T05:47:51.586Z,5.40
2022-08-09T05:50:35.985Z,4.28
2022-08-09T05:53:21.394Z,4.95
2022-08-09T05:55:50.630Z,4.85
2022-08-09T05:58:20.220Z,4.93
2022-08-09T06:00:48.161Z,4.45
2022-08-09T06:03:19.903Z,4.90
2022-08-09T06:05:57.519Z,4.45
2022-08-09T06:08:32.078Z,4.20
2022-08-09T06:10:59.227Z,4.10
2022-08-09T06:13:28.300Z,4.15
2022-08-09T06:16:04.686Z,4.07
2022-08-09T06:18:32.682Z,4.22
2022-08-09T06:21:01.699Z,4.30
2022-08-09T06:23:57.553Z,4.25
2022-08-09T06:26:20.245Z,3.80
2022-08-09T06:29:00.163Z,4.35
2022-08-09T06:31:30.631Z,4.22
2022-08-09T06:33:58.719Z,3.92
2022-08-09T06:36:27.141Z,3.97
2022-08-09T06:38:54.890Z,4.18
2022-08-09T06:42:07.544Z,4.10
2022-08-09T06:44:18.328Z,3.90
2022-08-09T06:46:48.257Z,4.07
2022-08-09T06:49:22.679Z,4.18
2022-08-09T06:51:56.445Z,4.03
2022-08-09T06:54:23.804Z,3.75
2022-08-09T06:56:53.857Z,4.20
2022-08-09T07:00:56.084Z,3.60
2022-08-09T07:02:10.648Z,4.05
2022-08-09T07:04:37.667Z,4.07
2022-08-09T07:07:05.197Z,3.58
2022-08-09T07:09:55.521Z,3.60
2022-08-09T07:12:20.334Z,4.18
2022-08-09T07:14:50.823Z,3.35
2022-08-09T07:17:20.165Z,3.70
2022-08-09T07:19:50.800Z,3.25
2022-08-09T07:22:34.485Z,3.58
2022-08-09T07:25:09.663Z,2.78
2022-08-09T07:27:42.584Z,3.05
2022-08-09T07:30:21.661Z,2.95
2022-08-09T07:32:51.822Z,3.03
2022-08-09T07:35:19.467Z,3.20
2022-08-09T07:37:49.178Z,3.00
2022-08-09T07:40:20.742Z,2.92
2022-08-09T07:42:55.671Z,3.42
2022-08-09T07:45:38.114Z,3.30
2022-08-09T07:48:25.935Z,2.75
2022-08-09T07:51:10.355Z,2.88
2022-08-09T07:54:07.711Z,3.85
2022-08-09T07:56:34.334Z,2.80
2022-08-09T07:59:12.415Z,2.83
2022-08-09T08:01:41.131Z,2.55
2022-08-09T08:04:10.325Z,2.67
2022-08-09T08:06:55.642Z,2.67
2022-08-09T08:09:38.683Z,2.50
2022-08-09T08:12:27.721Z,2.55
2022-08-09T08:14:57.045Z,2.42
2022-08-09T08:17:51.918Z,2.40
2022-08-09T08:20:13.063Z,2.70
2022-08-09T08:22:41.330Z,3.00
2022-08-09T08:25:13.459Z,2.63
2022-08-09T08:27:43.013Z,3.00
2022-08-09T08:30:13.730Z,2.50
2022-08-09T08:32:53.959Z,3.25
2022-08-09T08:35:22.414Z,2.85
2022-08-09T08:38:02.272Z,2.30
2022-08-09T08:40:37.696Z,4.05
2022-08-09T08:43:08.798Z,4.03
2022-08-09T08:46:32.016Z,3.53
2022-08-09T08:48:53.629Z,3.92
2022-08-09T08:51:25.264Z,3.60
2022-08-09T08:54:03.550Z,3.42
2022-08-09T08:56:39.593Z,3.72
2022-08-09T08:59:19.839Z,2.47
2022-08-09T09:01:52.983Z,2.63
2022-08-09T09:04:41.177Z,2.25
2022-08-09T09:07:15.861Z,3.75
2022-08-09T09:10:02.503Z,2.47
2022-08-09T09:12:35.585Z,2.50
2022-08-09T09:15:05.648Z,2.22
2022-08-09T09:17:48.168Z,1.95
2022-08-09T09:20:16.676Z,2.47
2022-08-09T09:23:01.847Z,2.05
2022-08-09T09:26:03.591Z,1.90
2022-08-09T09:29:02.568Z,2.00
2022-08-09T09:32:03.668Z,2.45
2022-08-09T09:34:14.616Z,2.20
2022-08-09T09:36:52.884Z,2.13
2022-08-09T09:39:42.860Z,2.22
2022-08-09T09:42:24.454Z,2.40
2022-08-09T09:45:10.025Z,2.25
2022-08-09T09:47:56.554Z,1.95
2022-08-09T09:50:50.858Z,2.33
2022-08-09T09:53:57.791Z,2.20
2022-08-09T09:56:19.971Z,1.70
2022-08-09T09:58:58.742Z,1.40
2022-08-09T10:01:31.306Z,1.45
2022-08-09T10:04:22.906Z,2.03
2022-08-09T10:07:03.494Z,1.40
2022-08-09T10:09:49.102Z,1.80
2022-08-09T10:12:28.526Z,1.75
2022-08-09T10:15:07.512Z,1.40
2022-08-09T10:17:55.839Z,1.40
2022-08-09T10:20:35.570Z,1.23
2022-08-09T10:23:21.160Z,2.13
2022-08-09T10:26:07.470Z,1.08
2022-08-09T10:28:40.973Z,1.20
2022-08-09T10:34:10.692Z,1.40
2022-08-09T10:36:45.289Z,1.15
2022-08-09T10:39:14.209Z,2.40
2022-08-09T10:41:43.483Z,1.48
2022-08-09T10:44:10.768Z,1.45
2022-08-09T10:48:12.852Z,1.65
2022-08-09T10:50:01.146Z,1.30
2022-08-09T10:52:53.462Z,1.45
2022-08-09T10:55:27.805Z,1.30
2022-08-09T10:58:00.336Z,1.80
2022-08-09T11:00:37.521Z,1.58
2022-08-09T11:03:47.350Z,1.60
2022-08-09T11:06:16.015Z,1.63
2022-08-09T11:08:53.143Z,1.35
2022-08-09T11:11:21.818Z,1.60
2022-08-09T11:14:28.090Z,2.03
2022-08-09T11:16:57.212Z,1.85
2022-08-09T11:20:19.858Z,1.30
2022-08-09T11:22:56.668Z,1.60
2022-08-09T11:25:44.995Z,1.83
2022-08-09T11:28:38.908Z,1.80
2022-08-09T11:31:49.118Z,1.40
2022-08-09T11:34:48.979Z,1.40
2022-08-09T11:37:31.353Z,1.60
2022-08-09T11:40:12.056Z,1.38
2022-08-09T11:42:39.279Z,1.50
2022-08-09T11:45:20.449Z,1.98
2022-08-09T11:47:52.725Z,1.52
2022-08-09T11:50:56.622Z,1.80
2022-08-09T11:53:59.797Z,1.50
2022-08-09T11:56:20.711Z,1.40
2022-08-09T11:59:09.713Z,1.98
2022-08-09T12:02:17.807Z,1.88
2022-08-09T12:04:37.463Z,1.67
2022-08-09T12:07:08.278Z,1.67
2022-08-09T12:09:36.438Z,1.60
2022-08-09T12:12:12.954Z,1.77
2022-08-09T12:15:08.399Z,1.70
2022-08-09T12:17:44.864Z,1.95
2022-08-09T12:20:25.460Z,2.13
2022-08-09T12:23:02.714Z,1.77
2022-08-09T12:25:37.484Z,1.60
2022-08-09T12:29:14.404Z,1.90
2022-08-09T12:31:02.842Z,2.35
2022-08-09T12:33:59.512Z,2.13
2022-08-09T12:36:33.567Z,2.05
2022-08-09T12:39:01.658Z,1.70
2022-08-09T12:41:39.219Z,2.00
2022-08-09T12:44:10.223Z,1.75
2022-08-09T12:46:49.012Z,1.75
2022-08-09T12:49:18.370Z,1.80
2022-08-09T12:52:02.739Z,2.00
2022-08-09T12:55:00.786Z,1.77
2022-08-09T12:57:42.761Z,1.65
2022-08-09T13:00:25.831Z,1.80
2022-08-09T13:02:57.388Z,2.38
2022-08-09T13:05:35.555Z,2.03
2022-08-09T13:08:21.185Z,2.05
2022-08-09T13:11:23.338Z,2.10
2022-08-09T13:14:40.974Z,1.95
2022-08-09T13:16:44.878Z,1.77
2022-08-09T13:20:07.485Z,1.88
2022-08-09T13:22:37.982Z,1.65
2022-08-09T13:25:08.069Z,2.08
2022-08-09T13:27:48.260Z,1.75
2022-08-09T13:30:50.556Z,1.85
2022-08-09T13:33:11.687Z,1.98
2022-08-09T13:36:38.658Z,1.80
2022-08-09T13:38:55.510Z,1.92
2022-08-09T13:41:58.574Z,1.67
2022-08-09T13:44:13.667Z,2.10
2022-08-09T13:47:16.882Z,1.60
2022-08-09T13:49:39.656Z,2.10
2022-08-09T13:52:23.587Z,1.67
2022-08-09T13:55:00.952Z,1.85
2022-08-09T13:57:40.250Z,2.50
2022-08-09T14:00:15.483Z,1.95
2022-08-09T14:03:03.155Z,1.90
2022-08-09T14:05:58.389Z,1.88
2022-08-09T14:08:23.109Z,2.20
2022-08-09T14:10:52.347Z,1.75
2022-08-09T14:13:27.868Z,1.90
2022-08-09T14:16:15.421Z,2.20
2022-08-09T14:18:49.792Z,2.10
2022-08-09T14:21:21.087Z,2.08
2022-08-09T14:23:55.580Z,2.00
2022-08-09T14:26:31.800Z,2.10
2022-08-09T14:29:07.471Z,2.03
2022-08-09T14:31:49.669Z,2.00
2022-08-09T14:34:31.910Z,2.45
2022-08-09T14:37:01.995Z,2.10
2022-08-09T14:39:45.979Z,1.90
2022-08-09T14:42:31.827Z,1.88
2022-08-09T14:46:51.421Z,2.08
2022-08-09T14:47:58.924Z,2.10
2022-08-09T14:50:32.860Z,2.20
2022-08-09T14:53:02.269Z,2.00
2022-08-09T14:55:32.548Z,2.20
2022-08-09T14:58:04.668Z,2.28
2022-08-09T15:00:34.396Z,2.35
2022-08-09T15:03:09.016Z,2.50
2022-08-09T15:05:38.925Z,2.40
2022-08-09T15:08:10.381Z,2.10
2022-08-09T15:10:38.228Z,2.08
2022-08-09T15:13:08.950Z,2.45
2022-08-09T15:15:38.970Z,2.10
2022-08-09T15:18:12.396Z,2.10
2022-08-09T15:21:57.002Z,2.97
2022-08-09T15:24:01.905Z,3.67
2022-08-09T15:26:30.767Z,2.90
2022-08-09T15:29:04.080Z,3.15
2022-08-09T15:31:41.507Z,2.53
2022-08-09T15:34:31.608Z,3.80
2022-08-09T15:36:58.244Z,5.28
2022-08-09T15:39:43.970Z,3.78
2022-08-09T15:42:13.236Z,2.97
2022-08-09T15:44:42.140Z,2.55
2022-08-09T15:47:14.219Z,2.13
2022-08-09T15:50:03.523Z,1.83
2022-08-09T15:52:33.012Z,1.83
2022-08-09T15:55:01.052Z,2.10
2022-08-09T15:57:34.502Z,2.30
2022-08-09T16:00:14.048Z,1.98
2022-08-09T16:02:48.155Z,2.28
2022-08-09T16:05:22.245Z,2.22
2022-08-09T16:07:50.687Z,2.65
2022-08-09T16:10:55.261Z,2.30
2022-08-09T16:13:18.639Z,1.98
2022-08-09T16:16:04.454Z,2.05
2022-08-09T16:18:34.189Z,2.50
2022-08-09T16:21:01.222Z,2.03
2022-08-09T16:23:28.240Z,2.22
2022-08-09T16:26:02.514Z,2.55
2022-08-09T16:28:30.108Z,2.13
2022-08-09T16:30:59.664Z,1.83
2022-08-09T16:33:27.519Z,2.40
2022-08-09T16:36:00.942Z,2.53
2022-08-09T16:38:30.192Z,2.00
2022-08-09T16:40:57.225Z,2.60
2022-08-09T16:43:24.786Z,2.20
2022-08-09T16:45:54.420Z,2.42
2022-08-09T16:48:38.948Z,2.10
2022-08-09T16:51:13.906Z,2.58
2022-08-09T16:54:09.033Z,1.92
2022-08-09T16:56:31.061Z,1.90
2022-08-09T16:58:59.683Z,1.92
2022-08-09T17:01:33.923Z,2.00
2022-08-09T17:04:03.211Z,1.90
2022-08-09T17:06:33.520Z,1.88
2022-08-09T17:09:16.231Z,1.98
2022-08-09T17:11:52.409Z,1.92
2022-08-09T17:14:27.915Z,2.13
2022-08-09T17:17:02.658Z,2.35
2022-08-09T17:19:47.212Z,1.70
2022-08-09T17:22:24.229Z,2.05
2022-08-09T17:25:09.893Z,1.65
2022-08-09T17:27:49.254Z,2.30
2022-08-09T17:30:26.413Z,1.75
2022-08-09T17:33:00.678Z,1.83
2022-08-09T17:35:35.607Z,1.83
2022-08-09T17:38:30.539Z,1.95
2022-08-09T17:40:56.149Z,1.73
2022-08-09T17:43:33.891Z,1.90
2022-08-09T17:46:06.322Z,1.98
2022-08-09T17:48:51.924Z,1.73
2022-08-09T17:51:20.745Z,1.85
2022-08-09T17:53:53.318Z,1.80
2022-08-09T17:56:29.165Z,2.10
2022-08-09T17:59:11.983Z,1.60
2022-08-09T18:02:06.731Z,1.30
2022-08-09T18:04:31.670Z,1.90
2022-08-09T18:07:00.129Z,1.88
2022-08-09T18:09:40.498Z,1.48
2022-08-09T18:12:17.060Z,1.60
2022-08-09T18:14:53.769Z,1.60
2022-08-09T18:17:27.288Z,1.65
2022-08-09T18:20:57.442Z,1.80
2022-08-09T18:22:59.863Z,1.67
2022-08-09T18:25:51.075Z,1.42
2022-08-09T18:30:35.443Z,2.13
2022-08-09T18:31:11.927Z,1.75
2022-08-09T18:33:40.246Z,2.03
2022-08-09T18:36:14.374Z,1.73
2022-08-09T18:38:57.303Z,1.73
2022-08-09T18:41:28.379Z,2.22
2022-08-09T18:43:55.603Z,2.05
2022-08-09T18:46:46.993Z,1.65
2022-08-09T18:49:09.905Z,1.35
2022-08-09T18:51:38.461Z,1.75
2022-08-09T18:54:29.515Z,2.08
2022-08-09T18:57:05.355Z,1.85
2022-08-09T18:59:51.296Z,1.63
2022-08-09T19:02:20.768Z,2.05
2022-08-09T19:05:04.053Z,1.83
2022-08-09T19:07:38.545Z,1.90
2022-08-09T19:10:13.708Z,1.70
2022-08-09T19:12:45.644Z,1.60
2022-08-09T19:15:22.745Z,1.70
2022-08-09T19:17:54.741Z,1.75
2022-08-09T19:20:23.808Z,2.00
2022-08-09T19:22:54.487Z,1.85
2022-08-09T19:25:41.826Z,1.60
2022-08-09T19:28:13.019Z,1.88
2022-08-09T19:30:44.625Z,1.30
2022-08-09T19:33:19.513Z,1.77
2022-08-09T19:35:58.328Z,2.17
2022-08-09T19:38:28.223Z,1.60
2022-08-09T19:40:59.705Z,1.75
2022-08-09T19:44:00.807Z,1.70
2022-08-09T19:46:34.086Z,1.83
2022-08-09T19:50:07.069Z,1.40
2022-08-09T19:51:56.069Z,1.52
2022-08-09T19:54:25.435Z,2.10
2022-08-09T19:56:54.190Z,1.90
2022-08-09T19:59:57.958Z,1.80
2022-08-09T20:04:10.449Z,1.75
2022-08-09T20:05:10.276Z,1.70
2022-08-09T20:08:00.079Z,1.58
2022-08-09T20:10:34.938Z,1.52
2022-08-09T20:13:06.327Z,1.80
2022-08-09T20:16:33.520Z,2.03
2022-08-09T20:18:23.179Z,1.95
2022-08-09T20:20:56.991Z,1.63
2022-08-09T20:23:38.792Z,1.65
2022-08-09T20:26:08.592Z,1.90
2022-08-09T20:28:48.535Z,1.55
2022-08-09T20:31:17.511Z,2.05
2022-08-09T20:33:45.237Z,1.83
2022-08-09T20:36:32.023Z,2.50
2022-08-09T20:39:28.465Z,2.30
2022-08-09T20:41:49.903Z,2.10
2022-08-09T20:44:17.333Z,2.10
2022-08-09T20:46:54.377Z,2.28
2022-08-09T20:49:21.610Z,1.90
2022-08-09T20:51:50.821Z,2.13
2022-08-09T20:54:18.310Z,2.13
2022-08-09T20:56:49.381Z,2.42
2022-08-09T20:59:50.057Z,2.00
2022-08-09T21:02:11.544Z,2.67
2022-08-09T21:05:55.076Z,2.42
2022-08-09T21:07:40.165Z,2.40
2022-08-09T21:10:08.146Z,2.67
2022-08-09T21:12:37.699Z,2.25
2022-08-09T21:15:05.425Z,2.45
2022-08-09T21:18:22.981Z,2.30
2022-08-09T21:20:30.238Z,2.30
2022-08-09T21:22:59.444Z,2.58
2022-08-09T21:25:56.275Z,2.10
2022-08-09T21:28:35.172Z,2.58
2022-08-09T21:31:17.556Z,1.80
2022-08-09T21:33:52.362Z,2.10
2022-08-09T21:36:22.948Z,1.90
2022-08-09T21:38:58.102Z,1.90
2022-08-09T21:42:04.080Z,2.78
2022-08-09T21:44:34.455Z,2.58
2022-08-09T21:47:04.148Z,2.25
2022-08-09T21:49:39.882Z,2.28
2022-08-09T21:52:17.628Z,3.08
2022-08-09T21:55:03.512Z,2.42
2022-08-09T21:57:38.413Z,2.42
2022-08-09T22:00:33.742Z,2.63
2022-08-09T22:03:04.778Z,2.17
2022-08-09T22:05:36.921Z,2.33
2022-08-09T22:08:12.792Z,2.90
2022-08-09T22:11:49.138Z,2.63
2022-08-09T22:13:31.406Z,1.97
2022-08-09T22:16:01.555Z,2.77
2022-08-09T22:18:33.065Z,2.53
2022-08-09T22:21:01.046Z,2.20
2022-08-09T22:23:35.322Z,2.40
2022-08-09T22:26:08.370Z,2.10
2022-08-09T22:28:47.318Z,2.57
2022-08-09T22:31:21.210Z,2.10
2022-08-09T22:33:49.001Z,2.20
2022-08-09T22:36:22.400Z,1.87
2022-08-09T22:38:49.466Z,2.37
2022-08-09T22:41:16.472Z,2.20
2022-08-09T22:44:02.362Z,2.60
2022-08-09T22:48:15.374Z,2.67
2022-08-09T22:49:20.104Z,2.53
2022-08-09T22:51:56.358Z,2.63
2022-08-09T22:54:23.629Z,3.00
2022-08-09T22:56:57.132Z,2.67
2022-08-09T22:59:56.092Z,2.53
2022-08-09T23:02:15.885Z,2.23
2022-08-09T23:04:53.336Z,2.20
2022-08-09T23:08:22.330Z,2.83
2022-08-09T23:10:30.774Z,2.70
2022-08-09T23:12:58.905Z,2.67
2022-08-09T23:15:27.378Z,2.70
2022-08-09T23:17:55.170Z,3.80
2022-08-09T23:20:22.832Z,3.20
2022-08-09T23:22:49.731Z,3.20
2022-08-09T23:25:16.608Z,3.20
2022-08-09T23:28:14.125Z,3.00
2022-08-09T23:30:30.850Z,3.40
2022-08-09T23:32:57.990Z,3.20
2022-08-09T23:35:24.848Z,3.03
2022-08-09T23:37:51.674Z,3.00
2022-08-09T23:40:18.738Z,2.60
2022-08-09T23:42:45.584Z,2.83
2022-08-09T23:45:37.019Z,3.97
2022-08-09T23:47:59.551Z,2.83
2022-08-09T23:50:26.461Z,2.60
2022-08-09T23:52:53.952Z,2.80
2022-08-09T23:55:22.012Z,2.93
2022-08-09T23:58:07.843Z,2.70
